createdAt,value
2019-01-11T00:00:14.614Z,87.27
2019-01-11T00:02:47.852Z,79.53
2019-01-11T00:05:19.402Z,70.77
2019-01-11T00:07:51.145Z,65.53
2019-01-11T00:10:22.786Z,66.13
2019-01-11T00:12:59.450Z,61.80
2019-01-11T00:15:31.881Z,57.00
2019-01-11T00:18:03.631Z,52.83
2019-01-11T00:20:34.913Z,53.17
2019-01-11T00:23:06.558Z,51.63
2019-01-11T00:25:37.848Z,44.20
2019-01-11T00:28:09.228Z,46.73
2019-01-11T00:30:40.611Z,44.80
2019-01-11T00:33:12.482Z,41.03
2019-01-11T00:35:44.546Z,36.60
2019-01-11T00:38:15.901Z,34.40
2019-01-11T00:40:47.810Z,35.43
2019-01-11T00:43:19.328Z,37.90
2019-01-11T00:45:51.309Z,37.30
2019-01-11T00:48:22.980Z,33.07
2019-01-11T00:50:54.666Z,30.93
2019-01-11T00:53:25.946Z,31.97
2019-01-11T00:55:57.335Z,27.73
2019-01-11T00:58:28.713Z,26.07
2019-01-11T01:01:00.236Z,25.70
2019-01-11T01:03:31.894Z,27.57
2019-01-11T01:06:03.193Z,28.33
2019-01-11T01:08:35.021Z,22.43
2019-01-11T01:11:06.621Z,20.47
2019-01-11T01:13:43.596Z,19.17
2019-01-11T01:16:15.427Z,21.30
2019-01-11T01:18:47.130Z,19.00
2019-01-11T01:21:18.510Z,16.83
2019-01-11T01:23:50.398Z,22.37
2019-01-11T01:26:21.741Z,17.87
2019-01-11T01:28:53.346Z,18.80
2019-01-11T01:31:24.735Z,13.63
2019-01-11T01:33:56.518Z,17.60
2019-01-11T01:36:30.596Z,13.80
2019-01-11T01:39:01.923Z,14.27
2019-01-11T01:41:33.309Z,14.37
2019-01-11T01:44:05.311Z,13.87
2019-01-11T01:46:37.498Z,12.40
2019-01-11T01:49:09.103Z,13.47
2019-01-11T01:51:40.567Z,11.30
2019-01-11T01:54:17.421Z,13.70
2019-01-11T01:56:48.872Z,11.00
2019-01-11T01:59:20.555Z,18.20
2019-01-11T02:01:52.218Z,13.67
2019-01-11T02:04:24.352Z,13.00
2019-01-11T02:06:55.745Z,13.07
2019-01-11T02:09:27.433Z,15.60
2019-01-11T02:11:58.960Z,14.40
2019-01-11T02:14:30.660Z,14.10
2019-01-11T02:17:02.149Z,16.60
2019-01-11T02:19:33.702Z,14.20
2019-01-11T02:22:05.206Z,15.50
2019-01-11T02:24:36.777Z,15.13
2019-01-11T02:27:08.193Z,14.27
2019-01-11T02:29:39.631Z,14.43
2019-01-11T02:32:10.938Z,13.93
2019-01-11T02:34:43.755Z,14.30
2019-01-11T02:37:15.299Z,12.97
2019-01-11T02:39:47.009Z,15.40
2019-01-11T02:42:18.412Z,12.27
2019-01-11T02:44:50.051Z,14.83
2019-01-11T02:47:21.633Z,13.53
2019-01-11T02:49:55.020Z,13.57
2019-01-11T02:52:26.440Z,9.63
2019-01-11T02:54:57.636Z,10.33
2019-01-11T02:57:28.863Z,11.63
2019-01-11T03:00:00.199Z,10.87
2019-01-11T03:02:31.866Z,10.30
2019-01-11T03:05:03.351Z,11.27
2019-01-11T03:07:34.749Z,13.30
2019-01-11T03:10:10.300Z,14.80
2019-01-11T03:12:41.826Z,12.47
2019-01-11T03:15:14.185Z,13.37
2019-01-11T03:17:45.615Z,11.03
2019-01-11T03:20:17.727Z,11.17
2019-01-11T03:22:54.609Z,8.00
2019-01-11T03:25:26.101Z,10.40
2019-01-11T03:27:57.526Z,8.93
2019-01-11T03:30:29.058Z,9.57
2019-01-11T03:33:00.539Z,8.30
2019-01-11T03:35:31.754Z,8.83
2019-01-11T03:38:03.388Z,9.33
2019-01-11T03:40:34.932Z,11.17
2019-01-11T03:43:06.672Z,10.40
2019-01-11T03:45:37.949Z,8.07
2019-01-11T03:48:09.606Z,7.43
2019-01-11T03:50:41.028Z,7.47
2019-01-11T03:53:12.821Z,7.07
2019-01-11T03:55:44.791Z,7.70
2019-01-11T03:58:16.319Z,5.73
2019-01-11T04:00:47.873Z,5.87
2019-01-11T04:03:19.272Z,5.63
2019-01-11T04:05:51.290Z,9.27
2019-01-11T04:08:22.670Z,7.10
2019-01-11T04:10:54.030Z,8.10
2019-01-11T04:13:30.425Z,8.37
2019-01-11T04:15:58.632Z,10.77
2019-01-11T04:18:33.966Z,13.97
2019-01-11T04:21:05.158Z,9.83
2019-01-11T04:23:36.690Z,9.37
2019-01-11T04:26:08.087Z,9.20
2019-01-11T04:28:39.411Z,6.83
2019-01-11T04:31:10.923Z,5.97
2019-01-11T04:33:42.642Z,8.87
2019-01-11T04:36:14.043Z,9.20
2019-01-11T04:38:45.729Z,8.00
2019-01-11T04:41:17.271Z,7.70
2019-01-11T04:43:49.115Z,7.33
2019-01-11T04:46:20.556Z,9.30
2019-01-11T04:48:52.232Z,8.63
2019-01-11T04:51:23.431Z,7.10
2019-01-11T04:53:54.736Z,8.83
2019-01-11T04:56:26.098Z,8.40
2019-01-11T04:58:57.581Z,7.33
2019-01-11T05:01:29.189Z,8.00
2019-01-11T05:04:00.784Z,9.00
2019-01-11T05:06:32.038Z,5.40
2019-01-11T05:09:04.736Z,5.93
2019-01-11T05:11:36.399Z,4.90
2019-01-11T05:14:07.824Z,6.07
2019-01-11T05:16:39.618Z,6.43
2019-01-11T05:19:11.252Z,6.93
2019-01-11T05:21:43.108Z,4.17
2019-01-11T05:24:14.766Z,6.93
2019-01-11T05:26:46.457Z,4.37
2019-01-11T05:29:18.316Z,6.37
2019-01-11T05:31:49.687Z,5.63
2019-01-11T05:34:21.690Z,4.57
2019-01-11T05:36:53.418Z,4.87
2019-01-11T05:39:24.723Z,4.63
2019-01-11T05:41:56.291Z,6.47
2019-01-11T05:44:27.957Z,5.13
2019-01-11T05:46:59.556Z,4.63
2019-01-11T05:49:30.994Z,4.73
2019-01-11T05:52:02.369Z,4.97
2019-01-11T05:54:33.897Z,4.70
2019-01-11T05:57:05.220Z,8.00
2019-01-11T05:59:37.125Z,4.13
2019-01-11T06:02:08.460Z,4.27
2019-01-11T06:04:51.641Z,7.67
2019-01-11T06:07:24.943Z,7.57
2019-01-11T06:09:56.490Z,4.90
2019-01-11T06:12:27.885Z,7.60
2019-01-11T06:14:59.136Z,6.00
2019-01-11T06:17:30.725Z,6.27
2019-01-11T06:20:02.319Z,6.37
2019-01-11T06:22:33.783Z,9.47
2019-01-11T06:25:06.712Z,7.87
2019-01-11T06:27:38.517Z,10.23
2019-01-11T06:30:12.157Z,5.43
2019-01-11T06:32:43.545Z,7.57
2019-01-11T06:35:15.225Z,6.63
2019-01-11T06:37:46.687Z,7.80
2019-01-11T06:40:17.948Z,8.17
2019-01-11T06:42:50.022Z,9.07
2019-01-11T06:45:21.364Z,8.23
2019-01-11T06:47:52.886Z,7.87
2019-01-11T06:50:27.304Z,6.50
2019-01-11T06:52:58.757Z,8.30
2019-01-11T06:55:30.211Z,8.77
2019-01-11T06:58:01.758Z,6.30
2019-01-11T07:00:33.145Z,10.27
2019-01-11T07:03:04.526Z,8.23
2019-01-11T07:05:35.946Z,9.80
2019-01-11T07:08:07.410Z,9.60
2019-01-11T07:10:38.969Z,11.13
2019-01-11T07:13:10.618Z,7.33
2019-01-11T07:15:42.110Z,9.63
2019-01-11T07:18:13.641Z,8.87
2019-01-11T07:20:46.693Z,8.10
2019-01-11T07:23:18.115Z,13.60
2019-01-11T07:25:49.494Z,10.13
2019-01-11T07:28:20.962Z,11.50
2019-01-11T07:31:09.750Z,10.97
2019-01-11T07:33:54.408Z,12.37
2019-01-11T07:36:29.760Z,10.33
2019-01-11T07:39:01.068Z,10.73
2019-01-11T07:41:33.857Z,11.27
2019-01-11T07:44:05.398Z,13.87
2019-01-11T07:46:36.713Z,13.33
2019-01-11T07:49:07.948Z,10.60
2019-01-11T07:51:39.442Z,13.63
2019-01-11T07:54:11.083Z,13.00
2019-01-11T07:56:42.695Z,11.17
2019-01-11T07:59:14.196Z,19.57
2019-01-11T08:01:46.102Z,12.93
2019-01-11T08:04:17.514Z,13.53
2019-01-11T08:06:49.045Z,11.63
2019-01-11T08:09:20.483Z,12.20
2019-01-11T08:11:52.374Z,17.50
2019-01-11T08:14:24.832Z,11.70
2019-01-11T08:16:56.324Z,11.97
2019-01-11T08:19:27.719Z,11.30
2019-01-11T08:21:59.078Z,12.80
2019-01-11T08:24:30.765Z,12.27
2019-01-11T08:27:02.158Z,14.50
2019-01-11T08:29:33.553Z,14.30
2019-01-11T08:32:05.547Z,11.20
2019-01-11T08:34:37.262Z,15.13
2019-01-11T08:37:10.154Z,12.83
2019-01-11T08:39:41.397Z,13.57
2019-01-11T08:42:13.395Z,20.47
2019-01-11T08:44:45.204Z,15.57
2019-01-11T08:47:16.530Z,11.47
2019-01-11T08:49:47.912Z,11.73
2019-01-11T08:52:19.388Z,14.53
2019-01-11T08:54:51.276Z,13.00
2019-01-11T08:57:22.834Z,16.30
2019-01-11T08:59:55.248Z,14.20
2019-01-11T09:02:26.753Z,15.77
2019-01-11T09:04:58.157Z,14.13
2019-01-11T09:07:29.602Z,12.80
2019-01-11T09:10:00.977Z,11.93
2019-01-11T09:12:32.811Z,12.00
2019-01-11T09:15:04.839Z,12.13
2019-01-11T09:17:40.255Z,11.87
2019-01-11T09:20:11.465Z,12.30
2019-01-11T09:22:45.642Z,10.13
2019-01-11T09:25:16.929Z,16.17
2019-01-11T09:27:48.352Z,11.47
2019-01-11T09:30:19.674Z,12.10
2019-01-11T09:33:00.241Z,11.77
2019-01-11T09:35:31.682Z,12.53
2019-01-11T09:38:03.196Z,14.10
2019-01-11T09:40:34.701Z,15.17
2019-01-11T09:43:06.067Z,10.03
2019-01-11T09:45:37.755Z,10.20
2019-01-11T09:48:08.965Z,9.93
2019-01-11T09:50:40.573Z,11.17
2019-01-11T09:53:12.432Z,10.53
2019-01-11T09:55:44.505Z,11.30
2019-01-11T09:58:15.906Z,9.67
2019-01-11T10:00:47.438Z,10.20
2019-01-11T10:03:19.967Z,8.83
2019-01-11T10:05:51.792Z,9.83
2019-01-11T10:08:23.474Z,12.33
2019-01-11T10:10:54.710Z,10.00
2019-01-11T10:13:26.324Z,10.77
2019-01-11T10:15:57.689Z,11.80
2019-01-11T10:18:29.135Z,13.93
2019-01-11T10:21:01.672Z,26.23
2019-01-11T10:23:33.239Z,14.87
2019-01-11T10:26:05.089Z,16.77
2019-01-11T10:28:38.267Z,11.17
2019-01-11T10:31:10.356Z,10.33
2019-01-11T10:33:41.704Z,12.57
2019-01-11T10:36:13.270Z,12.10
2019-01-11T10:38:45.122Z,12.70
2019-01-11T10:41:16.449Z,12.00
2019-01-11T10:43:47.997Z,12.97
2019-01-11T10:46:33.600Z,12.50
2019-01-11T10:49:05.896Z,10.70
2019-01-11T10:51:37.393Z,10.70
2019-01-11T10:54:14.214Z,14.77
2019-01-11T10:56:45.786Z,10.73
2019-01-11T10:59:17.477Z,10.53
2019-01-11T11:01:48.773Z,9.33
2019-01-11T11:04:20.651Z,12.03
2019-01-11T11:06:52.580Z,10.70
2019-01-11T11:09:25.713Z,11.23
2019-01-11T11:11:58.760Z,11.37
2019-01-11T11:14:31.930Z,11.10
2019-01-11T11:17:04.111Z,11.23
2019-01-11T11:19:35.735Z,9.13
2019-01-11T11:22:07.433Z,9.57
2019-01-11T11:24:38.915Z,11.77
2019-01-11T11:27:10.250Z,10.73
2019-01-11T11:29:41.788Z,10.93
2019-01-11T11:32:14.070Z,10.70
2019-01-11T11:34:48.069Z,12.57
2019-01-11T11:37:19.618Z,13.30
2019-01-11T11:39:51.898Z,11.33
2019-01-11T11:42:23.559Z,9.50
2019-01-11T11:44:55.008Z,11.40
2019-01-11T11:47:26.565Z,11.37
2019-01-11T11:49:58.430Z,10.27
2019-01-11T11:52:29.895Z,10.23
2019-01-11T11:55:02.238Z,9.10
2019-01-11T11:57:34.067Z,9.87
2019-01-11T12:00:07.611Z,11.10
2019-01-11T12:02:39.244Z,12.50
2019-01-11T12:05:11.424Z,12.33
2019-01-11T12:07:43.065Z,10.73
2019-01-11T12:10:15.998Z,11.07
2019-01-11T12:12:47.454Z,9.10
2019-01-11T12:15:18.943Z,12.53
2019-01-11T12:17:50.337Z,9.87
2019-01-11T12:20:33.180Z,9.50
2019-01-11T12:23:04.785Z,10.90
2019-01-11T12:25:36.172Z,11.33
2019-01-11T12:28:07.488Z,11.60
2019-01-11T12:30:38.831Z,13.40
2019-01-11T12:33:10.439Z,13.00
2019-01-11T12:35:41.976Z,13.10
2019-01-11T12:38:13.983Z,12.07
2019-01-11T12:40:46.434Z,13.13
2019-01-11T12:43:19.868Z,16.47
2019-01-11T12:45:51.580Z,18.33
2019-01-11T12:48:23.082Z,20.70
2019-01-11T12:50:54.772Z,16.17
2019-01-11T12:53:26.744Z,16.93
2019-01-11T12:55:58.850Z,21.07
2019-01-11T12:58:30.362Z,17.83
2019-01-11T13:01:02.176Z,19.20
2019-01-11T13:03:33.701Z,15.77
2019-01-11T13:06:05.138Z,17.07
2019-01-11T13:08:36.645Z,11.17
2019-01-11T13:11:08.231Z,12.83
2019-01-11T13:13:39.787Z,10.83
2019-01-11T13:16:11.475Z,16.00
2019-01-11T13:18:43.326Z,11.53
2019-01-11T13:21:14.895Z,13.63
2019-01-11T13:23:46.907Z,15.30
2019-01-11T13:26:19.961Z,12.87
2019-01-11T13:28:52.136Z,14.60
2019-01-11T13:31:24.282Z,18.63
2019-01-11T13:33:55.803Z,16.30
2019-01-11T13:36:27.546Z,13.73
2019-01-11T13:38:59.572Z,13.03
2019-01-11T13:41:31.029Z,13.77
2019-01-11T13:44:03.153Z,11.77
2019-01-11T13:46:34.445Z,15.60
2019-01-11T13:49:06.003Z,14.93
2019-01-11T13:51:37.577Z,15.10
2019-01-11T13:54:09.013Z,16.10
2019-01-11T13:56:40.497Z,17.83
2019-01-11T13:59:12.106Z,12.87
2019-01-11T14:01:43.906Z,11.57
2019-01-11T14:04:16.560Z,9.40
2019-01-11T14:06:48.320Z,9.73
2019-01-11T14:09:19.926Z,11.20
2019-01-11T14:11:51.455Z,10.47
2019-01-11T14:14:23.291Z,9.73
2019-01-11T14:16:54.922Z,11.63
2019-01-11T14:19:26.441Z,10.97
2019-01-11T14:21:57.888Z,9.27
2019-01-11T14:24:29.617Z,12.10
2019-01-11T14:27:00.999Z,10.70
2019-01-11T14:29:32.575Z,14.37
2019-01-11T14:32:04.073Z,12.57
2019-01-11T14:34:35.933Z,12.40
2019-01-11T14:37:07.322Z,11.70
2019-01-11T14:39:39.017Z,12.97
2019-01-11T14:42:10.274Z,10.77
2019-01-11T14:44:41.712Z,13.33
2019-01-11T14:47:13.567Z,17.67
2019-01-11T14:49:45.364Z,20.20
2019-01-11T14:52:20.295Z,14.47
2019-01-11T14:54:50.915Z,11.80
2019-01-11T14:57:24.515Z,15.53
2019-01-11T14:59:56.244Z,14.53
2019-01-11T15:02:27.609Z,13.87
2019-01-11T15:04:59.039Z,13.67
2019-01-11T15:07:30.373Z,15.03
2019-01-11T15:10:01.709Z,18.70
2019-01-11T15:12:34.177Z,15.90
2019-01-11T15:15:06.502Z,12.80
2019-01-11T15:17:38.313Z,14.77
2019-01-11T15:20:12.329Z,14.37
2019-01-11T15:22:43.805Z,15.90
2019-01-11T15:25:15.280Z,14.40
2019-01-11T15:27:47.099Z,13.63
2019-01-11T15:30:20.446Z,13.87
2019-01-11T15:32:52.217Z,18.93
2019-01-11T15:35:23.644Z,15.23
2019-01-11T15:37:55.046Z,14.67
2019-01-11T15:40:28.871Z,14.33
2019-01-11T15:43:00.917Z,18.37
2019-01-11T15:45:32.353Z,17.53
2019-01-11T15:48:03.851Z,29.30
2019-01-11T15:50:54.839Z,19.23
2019-01-11T15:53:29.580Z,23.63
2019-01-11T15:56:02.016Z,16.00
2019-01-11T15:58:33.828Z,15.80
2019-01-11T16:01:05.788Z,14.17
2019-01-11T16:03:37.218Z,17.70
2019-01-11T16:06:31.925Z,10.97
2019-01-11T16:09:57.839Z,19.70
2019-01-11T16:12:34.981Z,15.57
2019-01-11T16:15:31.411Z,15.77
2019-01-11T16:18:06.857Z,17.47
2019-01-11T16:20:38.180Z,17.70
2019-01-11T16:23:15.050Z,16.60
2019-01-11T16:25:46.939Z,16.30
2019-01-11T16:28:18.623Z,23.33
2019-01-11T16:30:49.897Z,20.80
2019-01-11T16:33:21.748Z,15.37
2019-01-11T16:35:53.685Z,16.90
2019-01-11T16:38:25.997Z,12.00
2019-01-11T16:40:57.484Z,11.40
2019-01-11T16:43:29.234Z,12.17
2019-01-11T16:46:00.916Z,10.87
2019-01-11T16:48:32.193Z,13.70
2019-01-11T16:51:03.581Z,11.23
2019-01-11T16:53:35.096Z,16.57
2019-01-11T16:56:06.672Z,15.67
2019-01-11T16:58:38.059Z,15.10
2019-01-11T17:01:09.394Z,16.03
2019-01-11T17:03:41.781Z,16.23
2019-01-11T17:06:13.287Z,17.40
2019-01-11T17:08:45.090Z,13.83
2019-01-11T17:11:16.513Z,17.43
2019-01-11T17:13:48.456Z,13.30
2019-01-11T17:16:20.310Z,17.20
2019-01-11T17:18:51.950Z,17.67
2019-01-11T17:21:23.288Z,18.27
2019-01-11T17:23:59.890Z,15.10
2019-01-11T17:26:31.371Z,13.50
2019-01-11T17:29:02.762Z,18.07
2019-01-11T17:31:33.994Z,16.47
2019-01-11T17:34:10.564Z,14.73
2019-01-11T17:36:42.024Z,14.47
2019-01-11T17:39:13.767Z,15.23
2019-01-11T17:41:45.574Z,18.90
2019-01-11T17:44:17.140Z,12.97
2019-01-11T17:46:48.738Z,14.00
2019-01-11T17:49:20.920Z,15.87
2019-01-11T17:51:52.777Z,17.23
2019-01-11T17:54:24.514Z,13.60
2019-01-11T17:56:55.862Z,14.60
2019-01-11T17:59:27.247Z,12.10
2019-01-11T18:01:58.539Z,17.17
2019-01-11T18:04:30.338Z,15.07
2019-01-11T18:07:01.936Z,17.63
2019-01-11T18:09:33.542Z,32.00
2019-01-11T18:12:04.754Z,42.67
2019-01-11T18:14:36.185Z,35.97
2019-01-11T18:17:07.690Z,29.27
2019-01-11T18:19:38.949Z,20.20
2019-01-11T18:22:10.231Z,19.53
2019-01-11T18:24:42.207Z,55.90
2019-01-11T18:27:14.061Z,11.60
2019-01-11T18:29:45.880Z,17.07
2019-01-11T18:32:17.314Z,13.80
2019-01-11T18:34:48.981Z,15.33
2019-01-11T18:37:20.608Z,18.70
2019-01-11T18:39:57.726Z,14.23
2019-01-11T18:42:26.697Z,12.33
2019-01-11T18:44:58.230Z,16.37
2019-01-11T18:47:29.601Z,14.03
2019-01-11T18:50:01.258Z,13.13
2019-01-11T18:52:33.309Z,12.90
2019-01-11T18:55:05.634Z,14.57
2019-01-11T18:57:37.192Z,13.83
2019-01-11T19:00:15.177Z,13.30
2019-01-11T19:02:48.468Z,11.90
2019-01-11T19:05:20.288Z,18.57
2019-01-11T19:07:51.869Z,14.17
2019-01-11T19:10:23.592Z,18.33
2019-01-11T19:12:55.146Z,14.77
2019-01-11T19:15:28.891Z,14.37
2019-01-11T19:18:00.391Z,16.03
2019-01-11T19:20:32.320Z,14.27
2019-01-11T19:23:04.314Z,15.43
2019-01-11T19:25:35.598Z,14.30
2019-01-11T19:28:07.082Z,20.37
2019-01-11T19:30:38.344Z,15.60
2019-01-11T19:33:10.159Z,17.60
2019-01-11T19:35:41.605Z,20.60
2019-01-11T19:38:13.609Z,14.37
2019-01-11T19:40:45.586Z,22.27
2019-01-11T19:43:17.513Z,16.67
2019-01-11T19:45:49.085Z,34.37
2019-01-11T19:48:20.842Z,28.80
2019-01-11T19:50:52.527Z,18.57
2019-01-11T19:53:27.695Z,19.97
2019-01-11T19:55:58.976Z,25.53
2019-01-11T19:58:30.661Z,19.97
2019-01-11T20:01:02.142Z,19.20
2019-01-11T20:03:33.772Z,18.10
2019-01-11T20:06:05.215Z,22.83
2019-01-11T20:08:36.520Z,20.10
2019-01-11T20:11:08.263Z,32.77
2019-01-11T20:13:41.502Z,19.37
2019-01-11T20:16:13.471Z,16.00
2019-01-11T20:18:45.284Z,16.90
2019-01-11T20:21:16.814Z,18.67
2019-01-11T20:23:48.498Z,17.97
2019-01-11T20:26:20.272Z,24.43
2019-01-11T20:28:51.555Z,18.77
2019-01-11T20:31:24.376Z,17.10
2019-01-11T20:33:55.738Z,21.27
2019-01-11T20:36:27.858Z,20.37
2019-01-11T20:38:59.232Z,26.87
2019-01-11T20:41:30.793Z,17.63
2019-01-11T20:44:02.710Z,23.37
2019-01-11T20:46:34.232Z,22.57
2019-01-11T20:49:05.854Z,26.27
2019-01-11T20:51:37.480Z,34.67
2019-01-11T20:54:09.881Z,33.63
2019-01-11T20:56:42.103Z,47.47
2019-01-11T20:59:13.713Z,41.30
2019-01-11T21:01:45.685Z,24.43
2019-01-11T21:04:17.054Z,31.10
2019-01-11T21:06:48.643Z,39.27
2019-01-11T21:09:20.542Z,31.37
2019-01-11T21:11:52.417Z,27.13
2019-01-11T21:14:23.782Z,31.00
2019-01-11T21:16:55.297Z,25.90
2019-01-11T21:19:26.986Z,21.00
2019-01-11T21:21:58.658Z,22.83
2019-01-11T21:24:30.412Z,35.27
2019-01-11T21:27:01.848Z,31.80
2019-01-11T21:29:33.567Z,20.63
2019-01-11T21:32:05.008Z,31.73
2019-01-11T21:34:36.642Z,28.53
2019-01-11T21:37:07.876Z,23.57
2019-01-11T21:39:39.498Z,25.83
2019-01-11T21:42:10.984Z,17.97
2019-01-11T21:44:43.468Z,15.00
2019-01-11T21:47:14.746Z,16.43
2019-01-11T21:49:46.336Z,18.43
2019-01-11T21:52:17.773Z,17.93
2019-01-11T21:54:48.474Z,21.70
2019-01-11T21:57:20.235Z,22.43
2019-01-11T21:59:51.766Z,19.30
2019-01-11T22:02:23.123Z,18.20
2019-01-11T22:04:59.885Z,18.80
2019-01-11T22:07:31.558Z,20.43
2019-01-11T22:10:02.952Z,15.57
2019-01-11T22:12:34.283Z,14.00
2019-01-11T22:15:06.891Z,20.17
2019-01-11T22:17:38.488Z,11.83
2019-01-11T22:20:12.466Z,12.23
2019-01-11T22:22:44.157Z,16.30
2019-01-11T22:25:16.085Z,16.17
2019-01-11T22:27:47.369Z,13.10
2019-01-11T22:30:21.022Z,14.30
2019-01-11T22:32:53.175Z,15.20
2019-01-11T22:35:24.905Z,15.90
2019-01-11T22:37:56.152Z,14.00
2019-01-11T22:40:27.695Z,12.97
2019-01-11T22:43:00.337Z,13.93
2019-01-11T22:45:31.789Z,11.43
2019-01-11T22:48:03.209Z,11.83
2019-01-11T22:50:34.526Z,17.03
2019-01-11T22:53:06.308Z,15.43
2019-01-11T22:55:38.007Z,15.43
2019-01-11T22:58:09.779Z,15.80
2019-01-11T23:01:07.954Z,17.80
2019-01-11T23:03:46.400Z,17.20
2019-01-11T23:06:47.612Z,16.53
2019-01-11T23:09:21.412Z,19.50
2019-01-11T23:12:27.520Z,15.10
2019-01-11T23:14:59.057Z,14.47
2019-01-11T23:17:51.524Z,16.87
2019-01-11T23:20:22.929Z,15.30
2019-01-11T23:22:54.754Z,16.13
2019-01-11T23:25:26.575Z,16.10
2019-01-11T23:27:58.047Z,16.20
2019-01-11T23:30:29.594Z,28.33
2019-01-11T23:33:01.011Z,18.83
2019-01-11T23:35:32.309Z,16.03
2019-01-11T23:38:03.600Z,17.97
2019-01-11T23:40:35.100Z,17.77
2019-01-11T23:43:06.838Z,18.33
2019-01-11T23:45:38.444Z,16.57
2019-01-11T23:48:09.816Z,14.37
2019-01-11T23:50:41.096Z,15.63
2019-01-11T23:53:12.733Z,20.10
2019-01-11T23:55:45.618Z,13.63
2019-01-11T23:58:16.865Z,14.80
